Latest Coastal Weather Observations for Robe Airport

IDS60701

Issued at 6:21 am CDT Thursday 18 December 2014 (issued every 10 minutes, with the page automatically refreshed every 10 minutes)

About coastal observations | Map of coastal stations | Coastal observations for SA | Marine services | Other Formats
Station Details ID: 026105 Name: ROBE AIRFIELD Lat: -37.18 Lon: 139.81 Height: 3.0 m
Data from the previous 72 hours. | See also: Recent months at Robe Airport
Date/Time
CDT
Temp

°C
Wind Pressure Rain
since 9am
mm
Weather Cloud Vis
km
Sea
Height
m
Swell
Dir
 
Speed
knots
Gust
knots
hPa Trend Height
m
Period
s
Dir
18/06:00am 15.8 NW 16 26 1006.2 - 0.0 - - - - - - -
18/05:58am 15.8 NW 15 26 1006.2 - 0.0 - - - - - - -
18/05:30am 15.9 NW 12 17 1006.0 - 0.0 - - - - - - -
18/05:00am 16.0 NW 11 16 1005.8 - 0.0 - - - - - - -
18/04:30am 15.2 NW 10 14 1005.7 - 0.0 - - - - - - -
18/04:00am 15.1 NW 10 14 1005.7 - 0.0 - - - - - - -
18/03:30am 14.9 NW 9 12 1006.0 - 0.0 - - - - - - -
18/03:00am 14.7 NW 9 13 1006.1 - 0.0 - - - - - - -
18/02:30am 14.7 NW 10 13 1006.3 - 0.0 - - - - - - -
18/02:00am 11.2 N 6 7 1006.6 - 0.0 - - - - - - -
18/01:30am 13.5 NNW 6 9 1006.8 - 0.0 - - - - - - -
18/01:00am 14.4 NNW 8 10 1007.1 - 0.0 - - - - - - -
18/12:30am 14.5 NW 8 11 1007.5 - 0.0 - - - - - - -
18/12:00am 12.8 N 4 5 1007.9 - 0.0 - - - - - - -
 
Date/Time
CDT
Temp

°C
Wind Pressure Rain
since 9am
mm
Weather Cloud Vis
km
Sea
Height
m
Swell
Dir
 
Speed
knots
Gust
knots
hPa Trend Height
m
Period
s
Dir
17/11:30pm 12.9 N 6 8 1007.8 - 0.0 - - - - - - -
17/11:00pm 12.6 N 5 6 1007.8 - 0.0 - - - - - - -
17/10:30pm 13.2 N 4 5 1008.0 - 0.0 - - - - - - -
17/10:00pm 12.9 N 4 4 1008.1 - 0.0 - - - - - - -
17/09:30pm 12.9 NNW 3 4 1008.0 - 0.0 - - - - - - -
17/09:00pm 14.7 NW 4 6 1008.0 - 0.0 - - - - - - -
17/08:30pm 14.7 NW 4 5 1008.4 - 0.0 - - - - - - -
17/08:00pm 15.1 NW 5 7 1008.5 - 0.0 - - - - - - -
17/07:30pm 16.4 NW 6 9 1008.4 - 0.0 - - - - - - -
17/07:00pm 17.2 NW 7 10 1008.4 - 0.0 - - - - - - -
17/06:30pm 17.3 NW 6 9 1008.1 - 0.0 - - - - - - -
17/06:00pm 17.6 NW 7 10 1008.1 - 0.0 - - - - - - -
17/05:30pm 17.7 NW 8 12 1008.2 - 0.0 - - - - - - -
17/05:00pm 18.2 NNW 6 11 1008.2 - 0.0 - - - - - - -
17/04:30pm 17.8 NW 8 13 1008.6 - 0.0 - - - - - - -
17/04:00pm 18.5 WNW 9 15 1009.0 - 0.0 - - - - - - -
17/03:30pm 18.8 WNW 11 15 1009.2 - 0.0 - - - - - - -
17/03:00pm 18.6 NW 11 15 1009.4 - 0.0 - - - - - - -
17/02:30pm 18.3 NW 11 15 1009.6 - 0.0 - - - - - - -
17/02:00pm 18.4 NW 12 15 1009.7 - 0.0 - - - - - - -
17/01:30pm 18.8 NW 11 16 1009.9 - 0.0 - - - - - - -
17/01:00pm 18.7 NW 12 17 1010.1 - 0.0 - - - - - - -
17/12:30pm 18.1 NW 11 16 1010.4 - 0.0 - - - - - - -
17/12:00pm 18.1 NW 11 16 1010.3 - 0.0 - - - - - - -
17/11:30am 18.1 NW 11 16 1010.3 - 0.0 - - - - - - -
17/11:00am 17.6 NW 10 16 1010.6 - 0.0 - - - - - - -
17/10:30am 17.7 WNW 9 16 1010.6 - 0.0 - - - - - - -
17/10:00am 17.4 NW 9 13 1010.5 - 0.0 - - - - - - -
17/09:30am 17.4 WNW 8 12 1010.6 - 0.0 - - - - - - -
17/09:00am 16.4 WNW 6 11 1010.7 - 1.8 - - - - - - -
17/08:30am 16.0 WNW 6 10 1010.6 - 1.8 - - - - - - -
17/08:00am 15.5 NW 6 9 1010.5 - 1.8 - - - - - - -
17/07:30am 12.3 W 2 3 1010.3 - 1.8 - - - - - - -
17/07:00am 9.6 CALM 0 0 1010.0 - 1.8 - - - - - - -
17/06:30am 8.2 CALM 0 0 1009.6 - 1.8 - - - - - - -
17/06:00am 5.2 CALM 0 0 1009.3 - 1.8 - - - - - - -
17/05:30am 6.0 CALM 0 0 1008.9 - 1.8 - - - - - - -
17/05:00am 6.1 CALM 0 0 1008.5 - 1.8 - - - - - - -
17/04:30am 8.3 WSW 2 4 1008.1 - 1.8 - - - - - - -
17/04:00am 9.9 SW 2 4 1007.9 - 1.8 - - - - - - -
17/03:30am 10.8 SW 3 6 1007.8 - 1.8 - - - - - - -
17/03:00am 10.5 SW 3 4 1007.7 - 1.8 - - - - - - -
17/02:30am 11.2 SW 3 5 1007.9 - 1.8 - - - - - - -
17/02:00am 11.8 SW 5 8 1007.9 - 1.8 - - - - - - -
17/01:30am 10.4 SW 3 5 1008.0 - 1.6 - - - - - - -
17/01:00am 11.1 SSW 3 4 1008.1 - 1.6 - - - - - - -
17/12:30am 13.3 SW 9 21 1008.4 - 1.4 - - - - - - -
17/12:00am 13.6 SW 7 11 1008.4 - 1.0 - - - - - - -
 
Date/Time
CDT
Temp

°C
Wind Pressure Rain
since 9am
mm
Weather Cloud Vis
km
Sea
Height
m
Swell
Dir
 
Speed
knots
Gust
knots
hPa Trend Height
m
Period
s
Dir
16/11:30pm 13.5 SW 7 11 1008.5 - 1.0 - - - - - - -
16/11:00pm 13.8 SW 8 13 1008.4 - 1.0 - - - - - - -
16/10:30pm 13.9 SW 10 15 1008.3 - 1.0 - - - - - - -
16/10:00pm 13.9 SW 8 13 1008.0 - 1.0 - - - - - - -
16/09:30pm 14.2 SW 10 15 1007.7 - 1.0 - - - - - - -
16/09:00pm 14.2 SW 10 15 1007.4 - 1.0 - - - - - - -
16/08:30pm 14.5 SW 12 17 1007.0 - 1.0 - - - - - - -
16/08:00pm 15.0 SW 14 22 1006.4 - 1.0 - - - - - - -
16/07:30pm 15.9 SW 10 15 1006.1 - 1.0 - - - - - - -
16/07:00pm 16.6 SW 12 21 1005.8 - 1.0 - - - - - - -
16/06:30pm 16.6 WSW 13 21 1005.3 - 1.0 - - - - - - -
16/06:18pm 16.6 WSW 15 25 1005.1 - 1.0 - - - - - - -
16/06:00pm 17.6 WSW 15 22 1004.8 - 1.0 - - - - - - -
16/05:30pm 17.8 WSW 15 25 1004.3 - 1.0 - - - - - - -
16/05:27pm 18.2 WSW 15 25 1004.3 - 1.0 - - - - - - -
16/05:00pm 17.4 WSW 12 20 1004.0 - 1.0 - - - - - - -
16/04:30pm 18.8 WSW 14 25 1003.6 - 1.0 - - - - - - -
16/04:00pm 18.9 WSW 14 24 1003.3 - 1.0 - - - - - - -
16/03:30pm 19.3 WSW 13 23 1002.8 - 1.0 - - - - - - -
16/03:00pm 18.7 W 19 29 1002.3 - 1.0 - - - - - - -
16/02:30pm 18.3 W 18 31 1001.7 - 1.0 - - - - - - -
16/02:09pm 18.4 W 16 28 1001.5 - 1.0 - - - - - - -
16/02:00pm 16.8 W 15 24 1001.4 - 1.0 - - - - - - -
16/01:30pm 19.3 W 18 28 1000.8 - 0.8 - - - - - - -
16/01:00pm 19.2 WNW 20 32 1000.1 - 0.8 - - - - - - -
16/12:30pm 18.1 WNW 16 27 999.7 - 0.8 - - - - - - -
16/12:00pm 15.4 WNW 13 19 999.3 - 0.8 Recent precip. - - - - - -
16/11:30am 15.1 WNW 16 28 999.0 - 0.8 - - - - - - -
16/11:20am 16.1 NW 19 30 998.9 - 0.4 - - - - - - -
16/11:00am 17.3 NW 17 25 998.3 - 0.0 - - - - - - -
16/10:30am 17.6 NW 16 23 998.5 - 0.0 - - - - - - -
16/10:00am 18.4 NW 16 22 998.7 - 0.0 - - - - - - -
16/09:30am 18.3 NNW 15 21 999.0 - 0.0 - - - - - - -
16/09:00am 18.5 NNW 15 20 999.0 - 0.0 - - - - - - -
16/08:30am 17.8 NNW 13 17 999.0 - 0.0 - - - - - - -
16/08:00am 16.1 NW 12 16 999.6 - 0.0 - - - - - - -
16/07:30am 14.6 NW 10 15 999.8 - 0.0 - - - - - - -
16/07:00am 12.4 N 6 7 999.6 - 0.0 - - - - - - -
16/06:30am 9.8 N 5 6 999.1 - 0.0 - - - - - - -
16/06:00am 8.2 N 4 5 998.5 - 0.0 - - - - - - -
16/05:30am 8.7 NNE 7 9 997.3 - 0.0 - - - - - - -
16/05:00am 7.5 N 3 7 997.9 - 0.0 - - - - - - -
16/04:30am 6.5 NE 2 3 998.4 - 0.0 - - - - - - -
16/04:00am 5.0 CALM 0 0 998.9 - 0.0 - - - - - - -
16/03:30am 5.4 CALM 0 0 999.8 - 0.0 - - - - - - -
16/03:00am 6.8 SSE 1 1 1000.2 - 0.0 - - - - - - -
16/02:30am 6.9 SSE 2 2 1000.4 - 0.0 - - - - - - -
16/02:00am 7.9 SSE 2 3 1000.9 - 0.0 - - - - - - -
16/01:30am 8.3 CALM 0 0 1001.1 - 0.0 - - - - - - -
16/01:00am 7.9 CALM 0 0 1001.2 - 0.0 - - - - - - -
16/12:30am 8.3 CALM 0 2 1001.7 - 0.0 - - - - - - -
16/12:00am 11.2 SSE 3 4 1002.1 - 0.0 - - - - - - -
 
Date/Time
CDT
Temp

°C
Wind Pressure Rain
since 9am
mm
Weather Cloud Vis
km
Sea
Height
m
Swell
Dir
 
Speed
knots
Gust
knots
hPa Trend Height
m
Period
s
Dir
15/11:30pm 11.2 S 3 4 1002.6 - 0.0 - - - - - - -
15/11:00pm 12.0 S 4 4 1003.1 - 0.0 - - - - - - -
15/10:30pm 12.2 S 5 6 1003.5 - 0.0 - - - - - - -
15/10:00pm 13.2 S 6 8 1003.7 - 0.0 - - - - - - -
15/09:30pm 14.1 SSE 8 9 1003.9 - 0.0 - - - - - - -
15/09:00pm 14.4 S 7 11 1004.2 - 0.0 - - - - - - -
15/08:30pm 14.9 S 9 12 1004.2 - 0.0 - - - - - - -
15/08:00pm 15.8 S 10 13 1004.2 - 0.0 - - - - - - -
15/07:30pm 16.6 S 11 16 1004.3 - 0.0 - - - - - - -
15/07:00pm 17.1 S 15 19 1004.3 - 0.0 - - - - - - -
15/06:30pm 17.4 S 15 19 1004.4 - 0.0 - - - - - - -
15/06:00pm 18.2 SSW 14 19 1004.8 - 0.0 - - - - - - -
15/05:30pm 18.2 S 15 20 1004.7 - 0.0 - - - - - - -
15/05:00pm 18.5 SSW 15 20 1004.9 - 0.0 - - - - - - -
15/04:30pm 18.6 S 14 18 1005.0 - 0.0 - - - - - - -
15/04:00pm 19.5 SSW 13 19 1005.0 - 0.0 - - - - - - -
15/03:30pm 19.6 S 13 17 1005.2 - 0.0 - - - - - - -
15/03:00pm 19.8 SSW 12 18 1005.7 - 0.0 - - - - - - -
15/02:30pm 19.2 S 13 17 1006.2 - 0.0 - - - - - - -
15/02:00pm 20.0 S 14 19 1006.6 - 0.0 - - - - - - -
15/01:30pm 18.9 SSW 13 17 1007.0 - 0.0 - - - - - - -
15/01:00pm 19.4 SSW 13 18 1007.4 - 0.0 - - - - - - -
15/12:30pm 19.6 SSW 12 18 1007.7 - 0.0 - - - - - - -
15/12:00pm 19.2 SSW 11 15 1008.0 - 0.0 - - - - - - -
15/11:30am 19.9 SSW 10 15 1008.3 - 0.0 - - - - - - -
15/11:00am 19.3 S 11 16 1008.6 - 0.0 - - - - - - -
15/10:30am 19.1 SSE 7 12 1008.7 - 0.0 - - - - - - -
15/10:00am 18.9 SE 6 13 1009.0 - 0.0 - - - - - - -
15/09:30am 18.5 SSE 7 14 1009.5 - 0.0 - - - - - - -
15/09:00am 18.1 ESE 6 11 1009.8 - 0.0 - - - - - - -
15/08:30am 17.3 SE 5 11 1009.9 - 0.0 - - - - - - -
15/08:00am 16.9 SE 6 9 1009.8 - 0.0 - - - - - - -
15/07:30am 15.3 E 4 6 1010.1 - 0.0 - - - - - - -
15/07:00am 15.1 SE 4 5 1009.7 - 0.0 - - - - - - -
15/06:30am 12.6 SE 1 1 1009.8 - 0.0 - - - - - - -

Other Formats:

Comma delimited format used in spreadsheet applications
http://www.bom.gov.au/fwo/IDS60701/IDS60701.95816.axf

JavaScript Object Notation format (JSON) in row-major order
http://www.bom.gov.au/fwo/IDS60701/IDS60701.95816.json